Time,TemperatureF,DewpointF,PressureIn,WindDirection,WindDirectionDegrees,WindSpeedMPH,WindSpeedGustMPH,Humidity,HourlyPrecipIn,Conditions,Clouds,dailyrainin,SoftwareType,DateUTC
2013-09-23 00:05:00,48.6,45.0,29.90,North,10,0.0,1.0,86,0.00,,,0.00,weatherlink.com 1.10,2013-09-23 04:05:00,
2013-09-23 00:20:00,48.5,45.0,29.90,North,10,0.0,1.0,86,0.00,,,0.00,weatherlink.com 1.10,2013-09-23 04:20:00,
2013-09-23 00:35:00,48.4,45.0,29.90,North,10,0.0,0.0,87,0.00,,,0.00,weatherlink.com 1.10,2013-09-23 04:35:00,
2013-09-23 00:50:00,48.4,45.0,29.90,North,10,0.0,1.0,87,0.00,,,0.00,weatherlink.com 1.10,2013-09-23 04:50:00,
2013-09-23 01:05:00,48.3,45.0,29.90,North,10,0.0,1.0,87,0.00,,,0.00,weatherlink.com 1.10,2013-09-23 05:05:00,
2013-09-23 01:20:00,48.4,45.0,29.90,North,10,0.0,0.0,88,0.00,,,0.00,weatherlink.com 1.10,2013-09-23 05:20:00,
2013-09-23 01:35:00,48.4,45.0,29.90,North,10,0.0,1.0,89,0.00,,,0.00,weatherlink.com 1.10,2013-09-23 05:35:00,
2013-09-23 01:50:00,48.5,45.0,29.91,North,10,1.0,4.0,88,0.00,,,0.00,weatherlink.com 1.10,2013-09-23 05:50:00,
2013-09-23 02:05:00,48.7,45.0,29.91,North,355,0.0,5.0,88,0.00,,,0.00,weatherlink.com 1.10,2013-09-23 06:05:00,
2013-09-23 02:20:00,48.7,46.0,29.90,NNE,28,1.0,4.0,90,0.00,,,0.00,weatherlink.com 1.10,2013-09-23 06:20:00,
2013-09-23 02:35:00,48.6,46.0,29.90,NNE,15,0.0,4.0,90,0.00,,,0.00,weatherlink.com 1.10,2013-09-23 06:35:00,
2013-09-23 02:51:00,48.6,46.0,29.91,NNE,22,1.0,5.0,89,0.00,,,0.00,weatherlink.com 1.10,2013-09-23 06:51:00,
2013-09-23 03:06:00,48.9,45.0,29.91,North,5,0.0,6.0,87,0.00,,,0.00,weatherlink.com 1.10,2013-09-23 07:06:00,
2013-09-23 03:21:00,48.8,45.0,29.91,NNE,15,4.0,9.0,87,0.00,,,0.00,weatherlink.com 1.10,2013-09-23 07:21:00,
2013-09-23 03:36:00,48.4,45.0,29.91,NE,51,4.0,9.0,87,0.00,,,0.00,weatherlink.com 1.10,2013-09-23 07:36:00,
2013-09-23 03:51:00,48.1,45.0,29.91,NE,50,4.0,9.0,88,0.00,,,0.00,weatherlink.com 1.10,2013-09-23 07:51:00,
2013-09-23 04:06:00,47.9,45.0,29.92,NNE,30,5.0,6.0,90,0.00,,,0.00,weatherlink.com 1.10,2013-09-23 08:06:00,
2013-09-23 04:21:00,47.7,45.0,29.92,NNE,15,1.0,6.0,90,0.00,,,0.00,weatherlink.com 1.10,2013-09-23 08:21:00,
2013-09-23 04:36:00,47.6,45.0,29.92,NE,34,4.0,5.0,90,0.00,,,0.00,weatherlink.com 1.10,2013-09-23 08:36:00,
2013-09-23 04:51:00,47.4,45.0,29.93,NE,44,4.0,5.0,90,0.00,,,0.00,weatherlink.com 1.10,2013-09-23 08:51:00,
2013-09-23 05:06:00,47.3,45.0,29.93,NNE,23,2.0,5.0,91,0.00,,,0.00,weatherlink.com 1.10,2013-09-23 09:06:00,
2013-09-23 05:21:00,47.4,45.0,29.93,NE,44,0.0,5.0,90,0.00,,,0.00,weatherlink.com 1.10,2013-09-23 09:21:00,
2013-09-23 05:36:00,47.3,45.0,29.93,NNE,25,2.0,4.0,92,0.00,,,0.00,weatherlink.com 1.10,2013-09-23 09:36:00,
2013-09-23 05:51:00,47.2,45.0,29.94,NE,48,2.0,5.0,91,0.00,,,0.00,weatherlink.com 1.10,2013-09-23 09:51:00,
2013-09-23 06:06:00,47.2,45.0,29.94,NE,46,0.0,5.0,91,0.00,,,0.00,weatherlink.com 1.10,2013-09-23 10:06:00,
2013-09-23 06:21:00,47.2,45.0,29.95,NE,36,1.0,4.0,92,0.00,,,0.00,weatherlink.com 1.10,2013-09-23 10:21:00,
2013-09-23 06:36:00,47.1,45.0,29.95,ENE,67,6.0,6.0,92,0.00,,,0.00,weatherlink.com 1.10,2013-09-23 10:36:00,
2013-09-23 06:51:00,47.2,45.0,29.95,NE,53,1.0,7.0,91,0.00,,,0.00,weatherlink.com 1.10,2013-09-23 10:51:00,
2013-09-23 07:06:00,47.2,45.0,29.96,NNE,17,1.0,6.0,91,0.00,,,0.00,weatherlink.com 1.10,2013-09-23 11:06:00,
2013-09-23 07:21:00,47.2,45.0,29.97,NE,40,0.0,6.0,91,0.00,,,0.00,weatherlink.com 1.10,2013-09-23 11:21:00,
2013-09-23 07:36:00,47.3,45.0,29.97,NNE,26,6.0,7.0,90,0.00,,,0.00,weatherlink.com 1.10,2013-09-23 11:36:00,
2013-09-23 07:52:00,47.4,44.0,29.98,NNE,28,7.0,8.0,88,0.00,,,0.00,weatherlink.com 1.10,2013-09-23 11:52:00,
2013-09-23 08:06:00,47.6,43.0,29.98,NE,35,6.0,9.0,85,0.00,,,0.00,weatherlink.com 1.10,2013-09-23 12:06:00,
2013-09-23 08:21:00,47.7,43.0,29.99,ENE,63,5.0,12.0,84,0.00,,,0.00,weatherlink.com 1.10,2013-09-23 12:21:00,
2013-09-23 08:36:00,47.9,43.0,29.99,NNE,13,2.0,12.0,83,0.00,,,0.00,weatherlink.com 1.10,2013-09-23 12:36:00,
2013-09-23 08:51:00,48.6,43.0,29.99,NE,34,3.0,11.0,80,0.00,,,0.00,weatherlink.com 1.10,2013-09-23 12:51:00,
2013-09-23 09:06:00,48.7,43.0,29.99,NNE,27,4.0,10.0,81,0.00,,,0.00,weatherlink.com 1.10,2013-09-23 13:06:00,
2013-09-23 09:21:00,48.7,42.0,29.99,NNE,17,6.0,12.0,78,0.00,,,0.00,weatherlink.com 1.10,2013-09-23 13:21:00,
2013-09-23 09:36:00,48.5,42.0,30.00,ENE,64,5.0,13.0,79,0.00,,,0.00,weatherlink.com 1.10,2013-09-23 13:36:00,
2013-09-23 09:51:00,48.6,42.0,30.00,North,360,5.0,12.0,78,0.00,,,0.00,weatherlink.com 1.10,2013-09-23 13:51:00,
2013-09-23 10:06:00,49.0,42.0,30.01,ENE,57,5.0,13.0,76,0.00,,,0.00,weatherlink.com 1.10,2013-09-23 14:06:00,
2013-09-23 10:22:00,48.8,42.0,30.01,NNE,23,13.0,13.0,76,0.00,,,0.00,weatherlink.com 1.10,2013-09-23 14:22:00,
2013-09-23 10:37:00,48.8,42.0,30.02,NNE,28,5.0,13.0,78,0.00,,,0.00,weatherlink.com 1.10,2013-09-23 14:37:00,
2013-09-23 10:52:00,49.1,42.0,30.02,North,360,9.0,11.0,76,0.00,,,0.00,weatherlink.com 1.10,2013-09-23 14:52:00,
2013-09-23 11:07:00,49.5,42.0,30.02,North,350,7.0,13.0,76,0.00,,,0.00,weatherlink.com 1.10,2013-09-23 15:07:00,
2013-09-23 11:22:00,49.8,43.0,30.03,NE,42,8.0,12.0,76,0.00,,,0.00,weatherlink.com 1.10,2013-09-23 15:22:00,
2013-09-23 11:37:00,50.8,42.0,30.02,West,279,8.0,13.0,73,0.00,,,0.00,weatherlink.com 1.10,2013-09-23 15:37:00,
2013-09-23 11:52:00,50.6,42.0,30.02,ENE,70,3.0,12.0,72,0.00,,,0.00,weatherlink.com 1.10,2013-09-23 15:52:00,
2013-09-23 12:07:00,50.9,43.0,30.02,NNE,24,5.0,11.0,73,0.00,,,0.00,weatherlink.com 1.10,2013-09-23 16:07:00,
2013-09-23 12:22:00,51.4,41.0,30.02,NE,51,6.0,14.0,67,0.00,,,0.00,weatherlink.com 1.10,2013-09-23 16:22:00,
2013-09-23 12:37:00,51.2,42.0,30.02,NW,313,5.0,12.0,70,0.00,,,0.00,weatherlink.com 1.10,2013-09-23 16:37:00,
2013-09-23 12:52:00,51.8,43.0,30.02,North,10,7.0,12.0,71,0.00,,,0.00,weatherlink.com 1.10,2013-09-23 16:52:00,
2013-09-23 13:07:00,51.7,42.0,30.02,WNW,295,4.0,12.0,70,0.00,,,0.00,weatherlink.com 1.10,2013-09-23 17:07:00,
2013-09-23 13:22:00,51.8,43.0,30.02,NE,51,3.0,12.0,72,0.00,,,0.00,weatherlink.com 1.10,2013-09-23 17:22:00,
2013-09-23 13:37:00,52.6,43.0,30.02,NW,325,9.0,13.0,71,0.00,,,0.00,weatherlink.com 1.10,2013-09-23 17:37:00,
2013-09-23 13:52:00,52.2,43.0,30.01,NNE,24,4.0,12.0,71,0.00,,,0.00,weatherlink.com 1.10,2013-09-23 17:52:00,
2013-09-23 14:07:00,52.2,43.0,30.01,North,350,7.0,12.0,72,0.00,,,0.00,weatherlink.com 1.10,2013-09-23 18:07:00,
2013-09-23 14:22:00,52.6,43.0,30.01,WNW,296,2.0,13.0,70,0.00,,,0.00,weatherlink.com 1.10,2013-09-23 18:22:00,
2013-09-23 14:37:00,52.9,44.0,30.01,NNW,340,7.0,11.0,72,0.00,,,0.00,weatherlink.com 1.10,2013-09-23 18:37:00,
2013-09-23 14:52:00,54.3,45.0,30.00,NNE,32,8.0,13.0,70,0.00,,,0.00,weatherlink.com 1.10,2013-09-23 18:52:00,
2013-09-23 15:07:00,53.8,44.0,30.00,NE,47,7.0,11.0,69,0.00,,,0.00,weatherlink.com 1.10,2013-09-23 19:07:00,
2013-09-23 15:22:00,54.3,43.0,30.00,NNW,331,5.0,10.0,65,0.00,,,0.00,weatherlink.com 1.10,2013-09-23 19:22:00,
2013-09-23 15:37:00,54.2,44.0,30.00,NE,40,7.0,10.0,69,0.00,,,0.00,weatherlink.com 1.10,2013-09-23 19:37:00,
2013-09-23 15:52:00,54.4,43.0,30.00,WNW,292,5.0,11.0,66,0.00,,,0.00,weatherlink.com 1.10,2013-09-23 19:52:00,
2013-09-23 16:07:00,53.7,44.0,30.00,NNW,348,6.0,13.0,69,0.00,,,0.00,weatherlink.com 1.10,2013-09-23 20:07:00,
2013-09-23 16:22:00,55.4,44.0,29.99,NW,315,4.0,11.0,65,0.00,,,0.00,weatherlink.com 1.10,2013-09-23 20:22:00,
2013-09-23 16:37:00,54.5,43.0,29.99,North,360,6.0,12.0,66,0.00,,,0.00,weatherlink.com 1.10,2013-09-23 20:37:00,
2013-09-23 16:52:00,55.0,43.0,30.00,WNW,291,8.0,12.0,64,0.00,,,0.00,weatherlink.com 1.10,2013-09-23 20:52:00,
2013-09-23 17:07:00,55.1,43.0,30.00,NE,49,9.0,11.0,65,0.00,,,0.00,weatherlink.com 1.10,2013-09-23 21:07:00,
2013-09-23 17:22:00,54.9,44.0,30.00,NNW,346,2.0,12.0,67,0.00,,,0.00,weatherlink.com 1.10,2013-09-23 21:22:00,
2013-09-23 17:37:00,54.7,44.0,30.00,ENE,66,6.0,11.0,67,0.00,,,0.00,weatherlink.com 1.10,2013-09-23 21:37:00,
2013-09-23 17:52:00,54.4,44.0,30.01,NNE,22,4.0,10.0,67,0.00,,,0.00,weatherlink.com 1.10,2013-09-23 21:52:00,
2013-09-23 18:07:00,53.9,43.0,30.01,NE,56,6.0,10.0,68,0.00,,,0.00,weatherlink.com 1.10,2013-09-23 22:07:00,
2013-09-23 18:22:00,52.8,44.0,30.01,NNE,32,7.0,9.0,71,0.00,,,0.00,weatherlink.com 1.10,2013-09-23 22:22:00,
2013-09-23 18:37:00,52.3,44.0,30.01,NE,34,3.0,9.0,73,0.00,,,0.00,weatherlink.com 1.10,2013-09-23 22:37:00,
2013-09-23 18:52:00,51.3,43.0,30.01,North,5,6.0,8.0,74,0.00,,,0.00,weatherlink.com 1.10,2013-09-23 22:52:00,
2013-09-23 19:07:00,50.1,43.0,30.01,NE,46,2.0,7.0,77,0.00,,,0.00,weatherlink.com 1.10,2013-09-23 23:07:00,
2013-09-23 19:22:00,49.0,43.0,30.01,NE,52,1.0,6.0,79,0.00,,,0.00,weatherlink.com 1.10,2013-09-23 23:22:00,
2013-09-23 19:37:00,48.3,43.0,30.01,NE,48,3.0,7.0,81,0.00,,,0.00,weatherlink.com 1.10,2013-09-23 23:37:00,
2013-09-23 19:52:00,47.8,42.0,30.01,ENE,77,3.0,7.0,81,0.00,,,0.00,weatherlink.com 1.10,2013-09-23 23:52:00,
2013-09-23 20:07:00,47.3,42.0,30.02,ENE,61,5.0,6.0,82,0.00,,,0.00,weatherlink.com 1.10,2013-09-24 00:07:00,
2013-09-23 20:22:00,47.0,42.0,30.02,ESE,108,4.0,5.0,82,0.00,,,0.00,weatherlink.com 1.10,2013-09-24 00:22:00,
2013-09-23 20:37:00,46.9,42.0,30.02,ESE,109,4.0,4.0,83,0.00,,,0.00,weatherlink.com 1.10,2013-09-24 00:37:00,
2013-09-23 20:52:00,46.7,42.0,30.02,ENE,59,1.0,6.0,83,0.00,,,0.00,weatherlink.com 1.10,2013-09-24 00:52:00,
2013-09-23 21:07:00,46.5,42.0,30.02,ENE,70,0.0,4.0,84,0.00,,,0.00,weatherlink.com 1.10,2013-09-24 01:07:00,
2013-09-23 21:22:00,46.6,42.0,30.02,East,83,1.0,3.0,84,0.00,,,0.00,weatherlink.com 1.10,2013-09-24 01:22:00,
2013-09-23 21:37:00,46.7,43.0,30.02,East,79,0.0,5.0,85,0.00,,,0.00,weatherlink.com 1.10,2013-09-24 01:37:00,
2013-09-23 21:52:00,46.5,42.0,30.02,East,92,0.0,4.0,85,0.00,,,0.00,weatherlink.com 1.10,2013-09-24 01:52:00,
2013-09-23 22:07:00,46.2,42.0,30.02,East,94,0.0,1.0,86,0.00,,,0.00,weatherlink.com 1.10,2013-09-24 02:07:00,
2013-09-23 22:22:00,46.0,42.0,30.02,East,82,0.0,1.0,86,0.00,,,0.00,weatherlink.com 1.10,2013-09-24 02:22:00,
2013-09-23 22:37:00,45.5,42.0,30.02,East,82,0.0,1.0,87,0.00,,,0.00,weatherlink.com 1.10,2013-09-24 02:37:00,
2013-09-23 22:52:00,45.6,42.0,30.02,East,82,0.0,1.0,88,0.00,,,0.00,weatherlink.com 1.10,2013-09-24 02:52:00,
2013-09-23 23:07:00,45.2,42.0,30.02,East,82,0.0,2.0,89,0.00,,,0.00,weatherlink.com 1.10,2013-09-24 03:07:00,
2013-09-23 23:22:00,45.5,43.0,30.02,East,89,0.0,2.0,89,0.00,,,0.00,weatherlink.com 1.10,2013-09-24 03:22:00,
2013-09-23 23:37:00,46.1,43.0,30.02,ENE,77,0.0,2.0,88,0.00,,,0.00,weatherlink.com 1.10,2013-09-24 03:37:00,
2013-09-23 23:52:00,46.1,42.0,30.02,East,88,0.0,1.0,86,0.00,,,0.00,weatherlink.com 1.10,2013-09-24 03:52:00,